sensor_id;sensor_type;location;lat;lon;timestamp;P1;durP1;ratioP1;P2;durP2;ratioP2
77111;SDS011;66064;50.226;14.344;2024-01-15T00:00:44;29.65;;;27.52;;
77111;SDS011;66064;50.226;14.344;2024-01-15T00:03:31;29.73;;;27.45;;
77111;SDS011;66064;50.226;14.344;2024-01-15T00:05:57;34.50;;;31.63;;
77111;SDS011;66064;50.226;14.344;2024-01-15T00:08:25;39.17;;;35.90;;
77111;SDS011;66064;50.226;14.344;2024-01-15T00:10:51;28.25;;;25.85;;
77111;SDS011;66064;50.226;14.344;2024-01-15T00:13:17;30.88;;;28.30;;
77111;SDS011;66064;50.226;14.344;2024-01-15T00:15:44;20.17;;;17.85;;
77111;SDS011;66064;50.226;14.344;2024-01-15T00:18:10;33.67;;;31.13;;
77111;SDS011;66064;50.226;14.344;2024-01-15T00:20:38;27.52;;;25.00;;
77111;SDS011;66064;50.226;14.344;2024-01-15T00:23:06;30.30;;;27.80;;
77111;SDS011;66064;50.226;14.344;2024-01-15T00:25:32;33.25;;;30.33;;
77111;SDS011;66064;50.226;14.344;2024-01-15T00:27:58;23.75;;;22.45;;
77111;SDS011;66064;50.226;14.344;2024-01-15T00:30:25;33.58;;;30.55;;
77111;SDS011;66064;50.226;14.344;2024-01-15T00:32:52;31.27;;;28.45;;
77111;SDS011;66064;50.226;14.344;2024-01-15T00:35:19;31.20;;;28.30;;
77111;SDS011;66064;50.226;14.344;2024-01-15T00:37:46;33.67;;;30.25;;
77111;SDS011;66064;50.226;14.344;2024-01-15T00:40:12;32.90;;;30.13;;
77111;SDS011;66064;50.226;14.344;2024-01-15T00:42:38;23.90;;;22.20;;
77111;SDS011;66064;50.226;14.344;2024-01-15T00:45:04;32.55;;;29.67;;
77111;SDS011;66064;50.226;14.344;2024-01-15T00:47:33;31.02;;;28.30;;
77111;SDS011;66064;50.226;14.344;2024-01-15T00:50:00;28.08;;;25.30;;
77111;SDS011;66064;50.226;14.344;2024-01-15T00:52:27;35.42;;;32.25;;
77111;SDS011;66064;50.226;14.344;2024-01-15T00:54:54;32.17;;;29.75;;
77111;SDS011;66064;50.226;14.344;2024-01-15T00:57:20;27.95;;;25.27;;
77111;SDS011;66064;50.226;14.344;2024-01-15T00:59:46;36.42;;;33.65;;
77111;SDS011;66064;50.226;14.344;2024-01-15T01:02:13;27.77;;;25.15;;
77111;SDS011;66064;50.226;14.344;2024-01-15T01:04:40;29.58;;;26.58;;
77111;SDS011;66064;50.226;14.344;2024-01-15T01:07:06;29.20;;;26.58;;
77111;SDS011;66064;50.226;14.344;2024-01-15T01:09:32;30.40;;;27.60;;
77111;SDS011;66064;50.226;14.344;2024-01-15T01:11:58;29.75;;;27.05;;
77111;SDS011;66064;50.226;14.344;2024-01-15T01:14:24;32.17;;;29.33;;
77111;SDS011;66064;50.226;14.344;2024-01-15T01:16:51;30.52;;;27.88;;
77111;SDS011;66064;50.226;14.344;2024-01-15T01:19:17;30.67;;;28.00;;
77111;SDS011;66064;50.226;14.344;2024-01-15T01:21:44;31.15;;;28.20;;
77111;SDS011;66064;50.226;14.344;2024-01-15T01:24:10;30.88;;;27.85;;
77111;SDS011;66064;50.226;14.344;2024-01-15T01:26:37;30.25;;;27.27;;
77111;SDS011;66064;50.226;14.344;2024-01-15T01:29:02;32.47;;;29.52;;
77111;SDS011;66064;50.226;14.344;2024-01-15T01:31:29;28.05;;;25.88;;
77111;SDS011;66064;50.226;14.344;2024-01-15T01:33:55;29.05;;;26.40;;
77111;SDS011;66064;50.226;14.344;2024-01-15T01:36:21;32.10;;;29.45;;
77111;SDS011;66064;50.226;14.344;2024-01-15T01:38:47;33.10;;;30.17;;
77111;SDS011;66064;50.226;14.344;2024-01-15T01:41:14;36.72;;;30.45;;
77111;SDS011;66064;50.226;14.344;2024-01-15T01:43:42;28.77;;;26.58;;
77111;SDS011;66064;50.226;14.344;2024-01-15T01:46:09;27.05;;;24.63;;
77111;SDS011;66064;50.226;14.344;2024-01-15T01:48:36;31.58;;;28.70;;
77111;SDS011;66064;50.226;14.344;2024-01-15T01:51:02;32.58;;;29.88;;
77111;SDS011;66064;50.226;14.344;2024-01-15T01:53:29;32.13;;;29.45;;
77111;SDS011;66064;50.226;14.344;2024-01-15T01:56:00;27.48;;;24.65;;
77111;SDS011;66064;50.226;14.344;2024-01-15T01:58:27;28.13;;;25.95;;
77111;SDS011;66064;50.226;14.344;2024-01-15T02:00:55;32.17;;;29.20;;
77111;SDS011;66064;50.226;14.344;2024-01-15T02:03:22;39.15;;;35.13;;
77111;SDS011;66064;50.226;14.344;2024-01-15T02:05:48;30.35;;;27.55;;
77111;SDS011;66064;50.226;14.344;2024-01-15T02:08:15;35.40;;;32.33;;
77111;SDS011;66064;50.226;14.344;2024-01-15T02:10:41;31.05;;;28.42;;
77111;SDS011;66064;50.226;14.344;2024-01-15T02:13:07;34.63;;;31.52;;
77111;SDS011;66064;50.226;14.344;2024-01-15T02:15:35;39.05;;;35.85;;
77111;SDS011;66064;50.226;14.344;2024-01-15T02:18:02;37.22;;;34.00;;
77111;SDS011;66064;50.226;14.344;2024-01-15T02:20:29;34.60;;;31.55;;
77111;SDS011;66064;50.226;14.344;2024-01-15T02:23:12;34.92;;;32.40;;
77111;SDS011;66064;50.226;14.344;2024-01-15T02:25:43;33.72;;;30.67;;
77111;SDS011;66064;50.226;14.344;2024-01-15T02:28:14;35.78;;;31.90;;
77111;SDS011;66064;50.226;14.344;2024-01-15T02:30:43;34.63;;;31.40;;
77111;SDS011;66064;50.226;14.344;2024-01-15T02:33:10;36.65;;;33.40;;
77111;SDS011;66064;50.226;14.344;2024-01-15T02:35:38;33.95;;;30.98;;
77111;SDS011;66064;50.226;14.344;2024-01-15T02:38:05;30.83;;;28.27;;
77111;SDS011;66064;50.226;14.344;2024-01-15T02:40:32;33.85;;;31.20;;
77111;SDS011;66064;50.226;14.344;2024-01-15T02:42:58;40.15;;;36.47;;
77111;SDS011;66064;50.226;14.344;2024-01-15T02:45:25;47.05;;;37.45;;
77111;SDS011;66064;50.226;14.344;2024-01-15T02:47:51;35.30;;;32.17;;
77111;SDS011;66064;50.226;14.344;2024-01-15T02:50:17;30.42;;;27.52;;
77111;SDS011;66064;50.226;14.344;2024-01-15T02:52:43;33.63;;;30.02;;
77111;SDS011;66064;50.226;14.344;2024-01-15T02:55:11;34.25;;;31.17;;
77111;SDS011;66064;50.226;14.344;2024-01-15T02:57:37;36.40;;;33.40;;
77111;SDS011;66064;50.226;14.344;2024-01-15T03:00:03;40.05;;;36.13;;
77111;SDS011;66064;50.226;14.344;2024-01-15T03:02:30;31.27;;;28.35;;
77111;SDS011;66064;50.226;14.344;2024-01-15T03:04:59;32.22;;;29.65;;
77111;SDS011;66064;50.226;14.344;2024-01-15T03:07:25;36.22;;;32.97;;
77111;SDS011;66064;50.226;14.344;2024-01-15T03:09:51;38.03;;;34.28;;
77111;SDS011;66064;50.226;14.344;2024-01-15T03:12:17;34.05;;;29.35;;
77111;SDS011;66064;50.226;14.344;2024-01-15T03:14:43;36.13;;;32.72;;
77111;SDS011;66064;50.226;14.344;2024-01-15T03:17:10;34.15;;;31.30;;
77111;SDS011;66064;50.226;14.344;2024-01-15T03:19:38;38.25;;;35.45;;
77111;SDS011;66064;50.226;14.344;2024-01-15T03:22:04;36.17;;;32.83;;
77111;SDS011;66064;50.226;14.344;2024-01-15T03:24:31;36.42;;;32.83;;
77111;SDS011;66064;50.226;14.344;2024-01-15T03:26:57;35.53;;;32.75;;
77111;SDS011;66064;50.226;14.344;2024-01-15T03:29:23;35.13;;;32.05;;
77111;SDS011;66064;50.226;14.344;2024-01-15T03:31:49;34.90;;;32.15;;
77111;SDS011;66064;50.226;14.344;2024-01-15T03:34:16;34.90;;;32.28;;
77111;SDS011;66064;50.226;14.344;2024-01-15T03:36:42;33.63;;;31.33;;
77111;SDS011;66064;50.226;14.344;2024-01-15T03:39:08;22.95;;;21.02;;
77111;SDS011;66064;50.226;14.344;2024-01-15T03:41:34;34.38;;;31.73;;
77111;SDS011;66064;50.226;14.344;2024-01-15T03:44:00;31.85;;;29.48;;
77111;SDS011;66064;50.226;14.344;2024-01-15T03:46:27;36.10;;;33.28;;
77111;SDS011;66064;50.226;14.344;2024-01-15T03:48:53;36.88;;;33.88;;
77111;SDS011;66064;50.226;14.344;2024-01-15T03:51:19;34.22;;;31.48;;
77111;SDS011;66064;50.226;14.344;2024-01-15T03:53:45;42.28;;;38.97;;
77111;SDS011;66064;50.226;14.344;2024-01-15T03:56:14;32.55;;;29.95;;
77111;SDS011;66064;50.226;14.344;2024-01-15T03:58:40;33.70;;;31.33;;
77111;SDS011;66064;50.226;14.344;2024-01-15T04:01:09;29.65;;;27.25;;
77111;SDS011;66064;50.226;14.344;2024-01-15T04:03:36;28.77;;;26.70;;
77111;SDS011;66064;50.226;14.344;2024-01-15T04:06:03;39.42;;;36.03;;
77111;SDS011;66064;50.226;14.344;2024-01-15T04:08:30;32.90;;;30.33;;
77111;SDS011;66064;50.226;14.344;2024-01-15T04:10:56;33.78;;;30.58;;
77111;SDS011;66064;50.226;14.344;2024-01-15T04:13:22;28.77;;;26.60;;
77111;SDS011;66064;50.226;14.344;2024-01-15T04:15:49;33.55;;;30.35;;
77111;SDS011;66064;50.226;14.344;2024-01-15T04:18:16;39.33;;;35.60;;
77111;SDS011;66064;50.226;14.344;2024-01-15T04:20:43;39.03;;;35.90;;
77111;SDS011;66064;50.226;14.344;2024-01-15T04:23:10;31.98;;;29.67;;
77111;SDS011;66064;50.226;14.344;2024-01-15T04:25:37;43.30;;;39.70;;
77111;SDS011;66064;50.226;14.344;2024-01-15T04:28:03;41.53;;;37.70;;
77111;SDS011;66064;50.226;14.344;2024-01-15T04:30:30;29.67;;;27.13;;
77111;SDS011;66064;50.226;14.344;2024-01-15T04:32:57;34.40;;;31.67;;
77111;SDS011;66064;50.226;14.344;2024-01-15T04:35:23;26.65;;;24.70;;
77111;SDS011;66064;50.226;14.344;2024-01-15T04:37:49;35.80;;;33.25;;
77111;SDS011;66064;50.226;14.344;2024-01-15T04:40:15;25.77;;;23.75;;
77111;SDS011;66064;50.226;14.344;2024-01-15T04:42:42;31.10;;;28.88;;
77111;SDS011;66064;50.226;14.344;2024-01-15T04:45:08;32.70;;;30.00;;
77111;SDS011;66064;50.226;14.344;2024-01-15T04:47:34;32.20;;;29.63;;
77111;SDS011;66064;50.226;14.344;2024-01-15T04:50:03;33.53;;;30.70;;
77111;SDS011;66064;50.226;14.344;2024-01-15T04:52:31;32.40;;;29.65;;
77111;SDS011;66064;50.226;14.344;2024-01-15T04:54:58;32.45;;;29.50;;
77111;SDS011;66064;50.226;14.344;2024-01-15T04:57:24;31.40;;;29.00;;
77111;SDS011;66064;50.226;14.344;2024-01-15T04:59:50;37.20;;;34.30;;
77111;SDS011;66064;50.226;14.344;2024-01-15T05:02:16;34.88;;;32.38;;
77111;SDS011;66064;50.226;14.344;2024-01-15T05:04:42;38.80;;;35.72;;
77111;SDS011;66064;50.226;14.344;2024-01-15T05:07:08;30.17;;;28.00;;
77111;SDS011;66064;50.226;14.344;2024-01-15T05:09:34;25.98;;;17.40;;
77111;SDS011;66064;50.226;14.344;2024-01-15T05:12:01;38.33;;;35.03;;
77111;SDS011;66064;50.226;14.344;2024-01-15T05:14:27;26.63;;;24.60;;
77111;SDS011;66064;50.226;14.344;2024-01-15T05:16:53;31.17;;;29.00;;
77111;SDS011;66064;50.226;14.344;2024-01-15T05:19:19;30.70;;;28.88;;
77111;SDS011;66064;50.226;14.344;2024-01-15T05:21:45;29.63;;;27.45;;
77111;SDS011;66064;50.226;14.344;2024-01-15T05:24:11;27.73;;;26.05;;
77111;SDS011;66064;50.226;14.344;2024-01-15T05:26:38;17.52;;;15.68;;
77111;SDS011;66064;50.226;14.344;2024-01-15T05:29:04;28.35;;;26.38;;
77111;SDS011;66064;50.226;14.344;2024-01-15T05:31:31;31.83;;;29.60;;
77111;SDS011;66064;50.226;14.344;2024-01-15T05:33:58;26.70;;;24.88;;
77111;SDS011;66064;50.226;14.344;2024-01-15T05:36:24;29.65;;;27.65;;
77111;SDS011;66064;50.226;14.344;2024-01-15T05:38:50;28.05;;;26.10;;
77111;SDS011;66064;50.226;14.344;2024-01-15T05:41:17;26.10;;;24.38;;
77111;SDS011;66064;50.226;14.344;2024-01-15T05:43:43;25.73;;;24.25;;
77111;SDS011;66064;50.226;14.344;2024-01-15T05:46:09;29.48;;;27.75;;
77111;SDS011;66064;50.226;14.344;2024-01-15T05:48:37;31.10;;;29.25;;
77111;SDS011;66064;50.226;14.344;2024-01-15T05:51:04;28.38;;;26.48;;
77111;SDS011;66064;50.226;14.344;2024-01-15T05:53:29;28.52;;;26.77;;
77111;SDS011;66064;50.226;14.344;2024-01-15T05:55:55;25.77;;;24.20;;
77111;SDS011;66064;50.226;14.344;2024-01-15T05:58:22;25.95;;;24.20;;
77111;SDS011;66064;50.226;14.344;2024-01-15T06:00:48;36.67;;;34.03;;
77111;SDS011;66064;50.226;14.344;2024-01-15T06:03:15;28.20;;;26.52;;
77111;SDS011;66064;50.226;14.344;2024-01-15T06:05:42;29.05;;;27.08;;
77111;SDS011;66064;50.226;14.344;2024-01-15T06:08:08;35.13;;;32.70;;
77111;SDS011;66064;50.226;14.344;2024-01-15T06:10:34;27.70;;;25.50;;
77111;SDS011;66064;50.226;14.344;2024-01-15T06:13:00;28.83;;;26.55;;
77111;SDS011;66064;50.226;14.344;2024-01-15T06:15:26;26.92;;;25.40;;
77111;SDS011;66064;50.226;14.344;2024-01-15T06:17:52;32.88;;;30.60;;
77111;SDS011;66064;50.226;14.344;2024-01-15T06:20:20;30.10;;;28.42;;
77111;SDS011;66064;50.226;14.344;2024-01-15T06:22:46;25.30;;;23.73;;
77111;SDS011;66064;50.226;14.344;2024-01-15T06:25:12;30.63;;;28.80;;
77111;SDS011;66064;50.226;14.344;2024-01-15T06:27:37;32.13;;;29.83;;
77111;SDS011;66064;50.226;14.344;2024-01-15T06:30:04;25.08;;;23.60;;
77111;SDS011;66064;50.226;14.344;2024-01-15T06:32:30;33.20;;;31.33;;
77111;SDS011;66064;50.226;14.344;2024-01-15T06:34:57;28.10;;;26.17;;
77111;SDS011;66064;50.226;14.344;2024-01-15T06:37:22;27.95;;;26.52;;
77111;SDS011;66064;50.226;14.344;2024-01-15T06:39:49;29.23;;;27.67;;
77111;SDS011;66064;50.226;14.344;2024-01-15T06:42:15;28.15;;;26.17;;
77111;SDS011;66064;50.226;14.344;2024-01-15T06:44:41;28.63;;;26.77;;
77111;SDS011;66064;50.226;14.344;2024-01-15T06:47:06;31.55;;;29.23;;
77111;SDS011;66064;50.226;14.344;2024-01-15T06:49:32;35.33;;;33.13;;
77111;SDS011;66064;50.226;14.344;2024-01-15T06:51:58;30.35;;;28.33;;
77111;SDS011;66064;50.226;14.344;2024-01-15T06:54:25;26.58;;;24.60;;
77111;SDS011;66064;50.226;14.344;2024-01-15T06:56:52;23.23;;;22.02;;
77111;SDS011;66064;50.226;14.344;2024-01-15T06:59:18;31.63;;;29.75;;
77111;SDS011;66064;50.226;14.344;2024-01-15T07:01:43;27.88;;;25.83;;
77111;SDS011;66064;50.226;14.344;2024-01-15T07:04:10;27.38;;;25.65;;
77111;SDS011;66064;50.226;14.344;2024-01-15T07:06:36;31.60;;;29.38;;
77111;SDS011;66064;50.226;14.344;2024-01-15T07:09:03;31.38;;;29.50;;
77111;SDS011;66064;50.226;14.344;2024-01-15T07:11:29;28.85;;;26.98;;
77111;SDS011;66064;50.226;14.344;2024-01-15T07:13:55;29.70;;;27.73;;
77111;SDS011;66064;50.226;14.344;2024-01-15T07:16:20;31.33;;;29.10;;
77111;SDS011;66064;50.226;14.344;2024-01-15T07:18:47;36.30;;;33.42;;
77111;SDS011;66064;50.226;14.344;2024-01-15T07:21:13;34.83;;;32.20;;
77111;SDS011;66064;50.226;14.344;2024-01-15T07:23:39;17.85;;;15.30;;
77111;SDS011;66064;50.226;14.344;2024-01-15T07:26:05;30.17;;;28.02;;
77111;SDS011;66064;50.226;14.344;2024-01-15T07:28:31;14.35;;;12.93;;
77111;SDS011;66064;50.226;14.344;2024-01-15T07:30:57;25.40;;;23.17;;
77111;SDS011;66064;50.226;14.344;2024-01-15T07:33:23;29.15;;;27.65;;
77111;SDS011;66064;50.226;14.344;2024-01-15T07:35:49;31.95;;;30.05;;
77111;SDS011;66064;50.226;14.344;2024-01-15T07:38:15;33.95;;;31.63;;
77111;SDS011;66064;50.226;14.344;2024-01-15T07:40:41;25.33;;;23.17;;
77111;SDS011;66064;50.226;14.344;2024-01-15T07:43:07;32.55;;;29.65;;
77111;SDS011;66064;50.226;14.344;2024-01-15T07:45:33;29.20;;;27.20;;
77111;SDS011;66064;50.226;14.344;2024-01-15T07:47:59;26.23;;;24.58;;
77111;SDS011;66064;50.226;14.344;2024-01-15T07:50:25;27.75;;;25.92;;
77111;SDS011;66064;50.226;14.344;2024-01-15T07:52:51;29.30;;;27.48;;
77111;SDS011;66064;50.226;14.344;2024-01-15T07:55:19;30.52;;;28.65;;
77111;SDS011;66064;50.226;14.344;2024-01-15T07:57:45;32.72;;;30.15;;
77111;SDS011;66064;50.226;14.344;2024-01-15T08:00:11;29.48;;;27.63;;
77111;SDS011;66064;50.226;14.344;2024-01-15T08:02:38;27.10;;;25.13;;
77111;SDS011;66064;50.226;14.344;2024-01-15T08:05:04;29.85;;;27.65;;
77111;SDS011;66064;50.226;14.344;2024-01-15T08:07:30;31.00;;;28.83;;
77111;SDS011;66064;50.226;14.344;2024-01-15T08:09:56;26.63;;;24.77;;
77111;SDS011;66064;50.226;14.344;2024-01-15T08:12:22;27.98;;;25.95;;
77111;SDS011;66064;50.226;14.344;2024-01-15T08:14:48;31.73;;;29.60;;
77111;SDS011;66064;50.226;14.344;2024-01-15T08:17:15;33.13;;;30.85;;
77111;SDS011;66064;50.226;14.344;2024-01-15T08:19:42;29.67;;;27.77;;
77111;SDS011;66064;50.226;14.344;2024-01-15T08:22:08;29.05;;;27.58;;
77111;SDS011;66064;50.226;14.344;2024-01-15T08:24:35;22.02;;;20.65;;
77111;SDS011;66064;50.226;14.344;2024-01-15T08:27:01;25.75;;;23.88;;
77111;SDS011;66064;50.226;14.344;2024-01-15T08:29:27;27.00;;;25.55;;
77111;SDS011;66064;50.226;14.344;2024-01-15T08:31:53;26.00;;;24.25;;
77111;SDS011;66064;50.226;14.344;2024-01-15T08:34:20;24.80;;;23.08;;
77111;SDS011;66064;50.226;14.344;2024-01-15T08:36:46;32.58;;;30.48;;
77111;SDS011;66064;50.226;14.344;2024-01-15T08:39:12;24.92;;;23.40;;
77111;SDS011;66064;50.226;14.344;2024-01-15T08:41:38;30.25;;;28.45;;
77111;SDS011;66064;50.226;14.344;2024-01-15T08:44:04;27.17;;;25.02;;
77111;SDS011;66064;50.226;14.344;2024-01-15T08:46:31;30.33;;;28.55;;
77111;SDS011;66064;50.226;14.344;2024-01-15T08:48:57;34.20;;;31.83;;
77111;SDS011;66064;50.226;14.344;2024-01-15T08:51:23;22.90;;;21.70;;
77111;SDS011;66064;50.226;14.344;2024-01-15T08:53:49;23.77;;;22.33;;
77111;SDS011;66064;50.226;14.344;2024-01-15T08:56:15;29.20;;;27.30;;
77111;SDS011;66064;50.226;14.344;2024-01-15T08:58:41;29.45;;;27.33;;
77111;SDS011;66064;50.226;14.344;2024-01-15T09:01:07;23.33;;;21.88;;
77111;SDS011;66064;50.226;14.344;2024-01-15T09:03:33;29.13;;;27.13;;
77111;SDS011;66064;50.226;14.344;2024-01-15T09:06:00;28.40;;;26.35;;
77111;SDS011;66064;50.226;14.344;2024-01-15T09:08:26;27.00;;;25.00;;
77111;SDS011;66064;50.226;14.344;2024-01-15T09:10:53;28.02;;;25.95;;
77111;SDS011;66064;50.226;14.344;2024-01-15T09:13:19;28.13;;;26.38;;
77111;SDS011;66064;50.226;14.344;2024-01-15T09:15:45;26.75;;;22.70;;
77111;SDS011;66064;50.226;14.344;2024-01-15T09:18:11;21.98;;;20.45;;
77111;SDS011;66064;50.226;14.344;2024-01-15T09:20:37;24.98;;;23.73;;
77111;SDS011;66064;50.226;14.344;2024-01-15T09:23:04;25.70;;;24.10;;
77111;SDS011;66064;50.226;14.344;2024-01-15T09:25:30;27.60;;;25.73;;
77111;SDS011;66064;50.226;14.344;2024-01-15T09:27:55;26.17;;;24.40;;
77111;SDS011;66064;50.226;14.344;2024-01-15T09:30:21;23.85;;;22.23;;
77111;SDS011;66064;50.226;14.344;2024-01-15T09:32:47;23.15;;;21.88;;
77111;SDS011;66064;50.226;14.344;2024-01-15T09:35:14;24.80;;;23.23;;
77111;SDS011;66064;50.226;14.344;2024-01-15T09:37:40;26.65;;;24.73;;
77111;SDS011;66064;50.226;14.344;2024-01-15T09:40:06;28.55;;;27.23;;
77111;SDS011;66064;50.226;14.344;2024-01-15T09:42:38;25.88;;;24.25;;
77111;SDS011;66064;50.226;14.344;2024-01-15T09:45:05;21.77;;;20.10;;
77111;SDS011;66064;50.226;14.344;2024-01-15T09:47:32;24.52;;;22.98;;
77111;SDS011;66064;50.226;14.344;2024-01-15T09:49:58;27.60;;;25.77;;
77111;SDS011;66064;50.226;14.344;2024-01-15T09:52:24;25.88;;;24.45;;
77111;SDS011;66064;50.226;14.344;2024-01-15T09:54:51;24.98;;;23.35;;
77111;SDS011;66064;50.226;14.344;2024-01-15T09:57:17;25.63;;;24.05;;
77111;SDS011;66064;50.226;14.344;2024-01-15T09:59:44;21.02;;;19.65;;
77111;SDS011;66064;50.226;14.344;2024-01-15T10:02:12;23.08;;;21.88;;
77111;SDS011;66064;50.226;14.344;2024-01-15T10:04:44;25.08;;;23.58;;
77111;SDS011;66064;50.226;14.344;2024-01-15T10:07:10;25.48;;;23.38;;
77111;SDS011;66064;50.226;14.344;2024-01-15T10:09:42;22.42;;;20.55;;
77111;SDS011;66064;50.226;14.344;2024-01-15T10:12:08;26.98;;;25.27;;
77111;SDS011;66064;50.226;14.344;2024-01-15T10:14:37;21.92;;;20.45;;
77111;SDS011;66064;50.226;14.344;2024-01-15T10:17:24;20.38;;;19.23;;
77111;SDS011;66064;50.226;14.344;2024-01-15T10:19:49;25.42;;;23.90;;
77111;SDS011;66064;50.226;14.344;2024-01-15T10:22:15;17.50;;;15.73;;
77111;SDS011;66064;50.226;14.344;2024-01-15T10:24:41;25.02;;;23.55;;
77111;SDS011;66064;50.226;14.344;2024-01-15T10:27:07;20.75;;;19.55;;
77111;SDS011;66064;50.226;14.344;2024-01-15T10:29:35;15.02;;;13.77;;
77111;SDS011;66064;50.226;14.344;2024-01-15T10:32:02;25.83;;;24.35;;
77111;SDS011;66064;50.226;14.344;2024-01-15T10:34:30;23.38;;;22.17;;
77111;SDS011;66064;50.226;14.344;2024-01-15T10:36:55;14.63;;;13.65;;
77111;SDS011;66064;50.226;14.344;2024-01-15T10:39:22;28.92;;;27.27;;
77111;SDS011;66064;50.226;14.344;2024-01-15T10:41:49;24.35;;;23.05;;
77111;SDS011;66064;50.226;14.344;2024-01-15T10:44:17;22.92;;;21.55;;
77111;SDS011;66064;50.226;14.344;2024-01-15T10:46:43;22.73;;;21.52;;
77111;SDS011;66064;50.226;14.344;2024-01-15T10:49:10;20.95;;;19.92;;
77111;SDS011;66064;50.226;14.344;2024-01-15T10:51:37;25.25;;;23.15;;
77111;SDS011;66064;50.226;14.344;2024-01-15T10:54:04;21.30;;;20.08;;
77111;SDS011;66064;50.226;14.344;2024-01-15T10:56:31;23.88;;;22.75;;
77111;SDS011;66064;50.226;14.344;2024-01-15T10:59:00;22.80;;;20.73;;
77111;SDS011;66064;50.226;14.344;2024-01-15T11:01:26;22.40;;;20.75;;
77111;SDS011;66064;50.226;14.344;2024-01-15T11:03:54;23.23;;;22.15;;
77111;SDS011;66064;50.226;14.344;2024-01-15T11:06:23;22.50;;;21.40;;
77111;SDS011;66064;50.226;14.344;2024-01-15T11:08:52;23.60;;;22.50;;
77111;SDS011;66064;50.226;14.344;2024-01-15T11:11:18;21.73;;;20.42;;
77111;SDS011;66064;50.226;14.344;2024-01-15T11:13:46;22.23;;;20.95;;
77111;SDS011;66064;50.226;14.344;2024-01-15T11:16:15;25.05;;;23.65;;
77111;SDS011;66064;50.226;14.344;2024-01-15T11:18:43;23.48;;;22.20;;
77111;SDS011;66064;50.226;14.344;2024-01-15T11:23:53;10.88;;;10.05;;
77111;SDS011;66064;50.226;14.344;2024-01-15T11:29:07;20.00;;;18.90;;
77111;SDS011;66064;50.226;14.344;2024-01-15T11:34:08;18.88;;;18.08;;
77111;SDS011;66064;50.226;14.344;2024-01-15T11:41:58;19.80;;;18.38;;
77111;SDS011;66064;50.226;14.344;2024-01-15T11:44:29;15.07;;;13.75;;
77111;SDS011;66064;50.226;14.344;2024-01-15T11:46:59;22.50;;;20.73;;
77111;SDS011;66064;50.226;14.344;2024-01-15T11:52:15;17.90;;;16.70;;
77111;SDS011;66064;50.226;14.344;2024-01-15T11:54:49;19.50;;;18.30;;
77111;SDS011;66064;50.226;14.344;2024-01-15T11:57:40;17.25;;;16.02;;
77111;SDS011;66064;50.226;14.344;2024-01-15T12:00:13;21.92;;;20.52;;
77111;SDS011;66064;50.226;14.344;2024-01-15T12:02:42;19.40;;;18.20;;
77111;SDS011;66064;50.226;14.344;2024-01-15T12:05:09;20.40;;;19.13;;
77111;SDS011;66064;50.226;14.344;2024-01-15T12:07:39;20.15;;;18.77;;
77111;SDS011;66064;50.226;14.344;2024-01-15T12:10:10;19.33;;;18.02;;
77111;SDS011;66064;50.226;14.344;2024-01-15T12:15:10;19.25;;;18.02;;
77111;SDS011;66064;50.226;14.344;2024-01-15T12:17:35;17.85;;;16.50;;
77111;SDS011;66064;50.226;14.344;2024-01-15T12:20:05;17.42;;;16.33;;
77111;SDS011;66064;50.226;14.344;2024-01-15T12:22:31;19.95;;;18.67;;
77111;SDS011;66064;50.226;14.344;2024-01-15T12:24:57;20.48;;;19.20;;
77111;SDS011;66064;50.226;14.344;2024-01-15T12:27:23;19.33;;;17.95;;
77111;SDS011;66064;50.226;14.344;2024-01-15T12:29:50;15.90;;;14.60;;
77111;SDS011;66064;50.226;14.344;2024-01-15T12:32:18;16.60;;;15.45;;
77111;SDS011;66064;50.226;14.344;2024-01-15T12:34:46;20.33;;;19.00;;
77111;SDS011;66064;50.226;14.344;2024-01-15T12:37:12;19.35;;;17.90;;
77111;SDS011;66064;50.226;14.344;2024-01-15T12:39:38;13.77;;;12.60;;
77111;SDS011;66064;50.226;14.344;2024-01-15T12:42:04;17.85;;;16.60;;
77111;SDS011;66064;50.226;14.344;2024-01-15T12:44:31;21.63;;;20.02;;
77111;SDS011;66064;50.226;14.344;2024-01-15T12:46:57;18.77;;;17.45;;
77111;SDS011;66064;50.226;14.344;2024-01-15T12:49:23;21.73;;;20.38;;
77111;SDS011;66064;50.226;14.344;2024-01-15T12:51:53;19.90;;;18.85;;
77111;SDS011;66064;50.226;14.344;2024-01-15T12:54:20;20.75;;;19.67;;
77111;SDS011;66064;50.226;14.344;2024-01-15T12:56:46;20.92;;;19.38;;
77111;SDS011;66064;50.226;14.344;2024-01-15T12:59:14;24.45;;;22.98;;
77111;SDS011;66064;50.226;14.344;2024-01-15T13:01:40;19.33;;;18.38;;
77111;SDS011;66064;50.226;14.344;2024-01-15T13:04:07;22.70;;;21.50;;
77111;SDS011;66064;50.226;14.344;2024-01-15T13:06:36;23.80;;;22.30;;
77111;SDS011;66064;50.226;14.344;2024-01-15T13:09:03;19.75;;;18.55;;
77111;SDS011;66064;50.226;14.344;2024-01-15T13:11:32;22.08;;;20.85;;
77111;SDS011;66064;50.226;14.344;2024-01-15T13:13:59;21.17;;;19.83;;
77111;SDS011;66064;50.226;14.344;2024-01-15T13:16:24;21.38;;;20.00;;
77111;SDS011;66064;50.226;14.344;2024-01-15T13:18:55;18.85;;;17.58;;
77111;SDS011;66064;50.226;14.344;2024-01-15T13:21:24;16.73;;;15.52;;
77111;SDS011;66064;50.226;14.344;2024-01-15T13:23:50;12.02;;;10.10;;
77111;SDS011;66064;50.226;14.344;2024-01-15T13:26:16;18.75;;;17.48;;
77111;SDS011;66064;50.226;14.344;2024-01-15T13:28:44;16.60;;;15.60;;
77111;SDS011;66064;50.226;14.344;2024-01-15T13:31:10;19.05;;;17.75;;
77111;SDS011;66064;50.226;14.344;2024-01-15T13:33:36;16.17;;;14.98;;
77111;SDS011;66064;50.226;14.344;2024-01-15T13:36:02;16.30;;;15.30;;
77111;SDS011;66064;50.226;14.344;2024-01-15T13:38:28;18.17;;;16.73;;
77111;SDS011;66064;50.226;14.344;2024-01-15T13:41:00;17.27;;;16.30;;
77111;SDS011;66064;50.226;14.344;2024-01-15T13:43:26;18.83;;;17.65;;
77111;SDS011;66064;50.226;14.344;2024-01-15T13:45:52;15.55;;;14.75;;
77111;SDS011;66064;50.226;14.344;2024-01-15T13:48:19;16.83;;;15.63;;
77111;SDS011;66064;50.226;14.344;2024-01-15T13:50:46;19.55;;;18.25;;
77111;SDS011;66064;50.226;14.344;2024-01-15T13:53:12;16.70;;;15.57;;
77111;SDS011;66064;50.226;14.344;2024-01-15T13:55:37;18.92;;;17.83;;
77111;SDS011;66064;50.226;14.344;2024-01-15T13:58:04;19.35;;;18.17;;
77111;SDS011;66064;50.226;14.344;2024-01-15T14:00:31;20.77;;;19.58;;
77111;SDS011;66064;50.226;14.344;2024-01-15T14:02:58;11.63;;;10.85;;
77111;SDS011;66064;50.226;14.344;2024-01-15T14:05:24;20.17;;;18.90;;
77111;SDS011;66064;50.226;14.344;2024-01-15T14:07:50;23.23;;;21.70;;
77111;SDS011;66064;50.226;14.344;2024-01-15T14:10:16;22.45;;;21.00;;
77111;SDS011;66064;50.226;14.344;2024-01-15T14:12:42;19.13;;;17.83;;
77111;SDS011;66064;50.226;14.344;2024-01-15T14:15:09;19.83;;;18.48;;
77111;SDS011;66064;50.226;14.344;2024-01-15T14:17:35;19.00;;;17.67;;
77111;SDS011;66064;50.226;14.344;2024-01-15T14:20:01;19.88;;;18.77;;
77111;SDS011;66064;50.226;14.344;2024-01-15T14:22:27;20.90;;;19.48;;
77111;SDS011;66064;50.226;14.344;2024-01-15T14:24:53;18.90;;;17.80;;